sensor_id;sensor_type;location;lat;lon;timestamp;temperature;humidity
47961;DHT22;33721;48.852;9.936;2022-12-07T00:01:11;2.40;99.90
47961;DHT22;33721;48.852;9.936;2022-12-07T00:03:38;2.50;99.90
47961;DHT22;33721;48.852;9.936;2022-12-07T00:06:06;2.50;99.90
47961;DHT22;33721;48.852;9.936;2022-12-07T00:08:33;2.50;99.90
47961;DHT22;33721;48.852;9.936;2022-12-07T00:13:29;2.50;99.90
47961;DHT22;33721;48.852;9.936;2022-12-07T00:15:54;2.50;99.90
47961;DHT22;33721;48.852;9.936;2022-12-07T00:18:20;2.50;99.90
47961;DHT22;33721;48.852;9.936;2022-12-07T00:20:45;2.40;99.90
47961;DHT22;33721;48.852;9.936;2022-12-07T00:23:11;2.40;99.90
47961;DHT22;33721;48.852;9.936;2022-12-07T00:25:37;2.40;99.90
47961;DHT22;33721;48.852;9.936;2022-12-07T00:28:02;2.40;99.90
47961;DHT22;33721;48.852;9.936;2022-12-07T00:30:28;2.40;99.90
47961;DHT22;33721;48.852;9.936;2022-12-07T00:32:54;2.40;99.90
47961;DHT22;33721;48.852;9.936;2022-12-07T00:35:19;2.50;99.90
47961;DHT22;33721;48.852;9.936;2022-12-07T00:37:45;2.50;99.90
47961;DHT22;33721;48.852;9.936;2022-12-07T00:40:11;2.50;99.90
47961;DHT22;33721;48.852;9.936;2022-12-07T00:42:37;2.50;99.90
47961;DHT22;33721;48.852;9.936;2022-12-07T00:45:02;2.50;99.90
47961;DHT22;33721;48.852;9.936;2022-12-07T00:47:28;2.50;99.90
47961;DHT22;33721;48.852;9.936;2022-12-07T00:49:54;2.50;99.90
47961;DHT22;33721;48.852;9.936;2022-12-07T00:52:19;2.50;99.90
47961;DHT22;33721;48.852;9.936;2022-12-07T00:54:45;2.50;99.90
47961;DHT22;33721;48.852;9.936;2022-12-07T00:57:10;2.50;99.90
47961;DHT22;33721;48.852;9.936;2022-12-07T00:59:36;2.50;99.90
47961;DHT22;33721;48.852;9.936;2022-12-07T01:02:02;2.50;99.90
47961;DHT22;33721;48.852;9.936;2022-12-07T01:04:27;2.50;99.90
47961;DHT22;33721;48.852;9.936;2022-12-07T01:06:53;2.60;99.90
47961;DHT22;33721;48.852;9.936;2022-12-07T01:09:18;2.60;99.90
47961;DHT22;33721;48.852;9.936;2022-12-07T01:11:44;2.60;99.90
47961;DHT22;33721;48.852;9.936;2022-12-07T01:14:10;2.60;99.90
47961;DHT22;33721;48.852;9.936;2022-12-07T01:16:35;2.60;99.90
47961;DHT22;33721;48.852;9.936;2022-12-07T01:19:02;2.60;99.90
47961;DHT22;33721;48.852;9.936;2022-12-07T01:21:31;2.60;99.90
47961;DHT22;33721;48.852;9.936;2022-12-07T01:24:04;2.60;99.90
47961;DHT22;33721;48.852;9.936;2022-12-07T01:26:31;2.60;99.90
47961;DHT22;33721;48.852;9.936;2022-12-07T01:28:56;2.60;99.90
47961;DHT22;33721;48.852;9.936;2022-12-07T01:31:25;2.60;99.90
47961;DHT22;33721;48.852;9.936;2022-12-07T01:33:53;2.60;99.90
47961;DHT22;33721;48.852;9.936;2022-12-07T01:36:28;2.60;99.90
47961;DHT22;33721;48.852;9.936;2022-12-07T01:38:56;2.60;99.90
47961;DHT22;33721;48.852;9.936;2022-12-07T01:41:24;2.60;99.90
47961;DHT22;33721;48.852;9.936;2022-12-07T01:46:34;2.60;99.90
47961;DHT22;33721;48.852;9.936;2022-12-07T01:49:00;2.60;99.90
47961;DHT22;33721;48.852;9.936;2022-12-07T01:51:27;2.60;99.90
47961;DHT22;33721;48.852;9.936;2022-12-07T01:53:53;2.60;99.90
47961;DHT22;33721;48.852;9.936;2022-12-07T01:56:23;2.60;99.90
47961;DHT22;33721;48.852;9.936;2022-12-07T01:58:51;2.60;99.90
47961;DHT22;33721;48.852;9.936;2022-12-07T02:01:17;2.50;99.90
47961;DHT22;33721;48.852;9.936;2022-12-07T02:03:44;2.50;99.90
47961;DHT22;33721;48.852;9.936;2022-12-07T02:06:12;2.50;99.90
47961;DHT22;33721;48.852;9.936;2022-12-07T02:08:40;2.50;99.90
47961;DHT22;33721;48.852;9.936;2022-12-07T02:11:07;2.60;99.90
47961;DHT22;33721;48.852;9.936;2022-12-07T02:13:35;2.60;99.90
47961;DHT22;33721;48.852;9.936;2022-12-07T02:16:17;2.60;99.90
47961;DHT22;33721;48.852;9.936;2022-12-07T02:21:53;2.50;99.90
47961;DHT22;33721;48.852;9.936;2022-12-07T02:24:54;2.50;99.90
47961;DHT22;33721;48.852;9.936;2022-12-07T02:30:05;2.40;99.90
47961;DHT22;33721;48.852;9.936;2022-12-07T02:32:51;2.40;99.90
47961;DHT22;33721;48.852;9.936;2022-12-07T02:35:30;2.40;99.90
47961;DHT22;33721;48.852;9.936;2022-12-07T02:38:18;2.40;99.90
47961;DHT22;33721;48.852;9.936;2022-12-07T02:40:52;2.40;99.90
47961;DHT22;33721;48.852;9.936;2022-12-07T02:43:26;2.40;99.90
47961;DHT22;33721;48.852;9.936;2022-12-07T02:45:56;2.40;99.90
47961;DHT22;33721;48.852;9.936;2022-12-07T02:48:23;2.40;99.90
47961;DHT22;33721;48.852;9.936;2022-12-07T02:50:52;2.40;99.90
47961;DHT22;33721;48.852;9.936;2022-12-07T02:56:06;2.30;99.90
47961;DHT22;33721;48.852;9.936;2022-12-07T03:01:50;2.20;99.90
47961;DHT22;33721;48.852;9.936;2022-12-07T03:04:36;2.20;99.90
47961;DHT22;33721;48.852;9.936;2022-12-07T03:07:16;2.30;99.90
47961;DHT22;33721;48.852;9.936;2022-12-07T03:09:51;2.30;99.90
47961;DHT22;33721;48.852;9.936;2022-12-07T03:12:22;2.30;99.90
47961;DHT22;33721;48.852;9.936;2022-12-07T03:14:55;2.40;99.90
47961;DHT22;33721;48.852;9.936;2022-12-07T03:17:28;2.40;99.90
47961;DHT22;33721;48.852;9.936;2022-12-07T03:19:58;2.40;99.90
47961;DHT22;33721;48.852;9.936;2022-12-07T03:22:29;2.40;99.90
47961;DHT22;33721;48.852;9.936;2022-12-07T03:24:57;2.40;99.90
47961;DHT22;33721;48.852;9.936;2022-12-07T03:27:27;2.40;99.90
47961;DHT22;33721;48.852;9.936;2022-12-07T03:30:00;2.30;99.90
47961;DHT22;33721;48.852;9.936;2022-12-07T03:32:31;2.30;99.90
47961;DHT22;33721;48.852;9.936;2022-12-07T03:35:07;2.30;99.90
47961;DHT22;33721;48.852;9.936;2022-12-07T03:37:43;2.40;99.90
47961;DHT22;33721;48.852;9.936;2022-12-07T03:42:43;2.30;99.90
47961;DHT22;33721;48.852;9.936;2022-12-07T03:45:09;2.40;99.90
47961;DHT22;33721;48.852;9.936;2022-12-07T03:47:47;2.30;99.90
47961;DHT22;33721;48.852;9.936;2022-12-07T03:50:29;2.20;99.90
47961;DHT22;33721;48.852;9.936;2022-12-07T03:53:05;2.20;99.90
47961;DHT22;33721;48.852;9.936;2022-12-07T03:55:36;2.10;99.90
47961;DHT22;33721;48.852;9.936;2022-12-07T03:58:06;2.10;99.90
47961;DHT22;33721;48.852;9.936;2022-12-07T04:00:33;2.10;99.90
47961;DHT22;33721;48.852;9.936;2022-12-07T04:02:59;2.10;99.90
47961;DHT22;33721;48.852;9.936;2022-12-07T04:05:24;2.10;99.90
47961;DHT22;33721;48.852;9.936;2022-12-07T04:07:50;2.20;99.90
47961;DHT22;33721;48.852;9.936;2022-12-07T04:10:16;2.20;99.90
47961;DHT22;33721;48.852;9.936;2022-12-07T04:12:42;2.10;99.90
47961;DHT22;33721;48.852;9.936;2022-12-07T04:15:08;2.10;99.90
47961;DHT22;33721;48.852;9.936;2022-12-07T04:17:33;2.10;99.90
47961;DHT22;33721;48.852;9.936;2022-12-07T04:19:59;2.10;99.90
47961;DHT22;33721;48.852;9.936;2022-12-07T04:22:25;2.00;99.90
47961;DHT22;33721;48.852;9.936;2022-12-07T04:24:50;2.00;99.90
47961;DHT22;33721;48.852;9.936;2022-12-07T04:27:16;2.00;99.90
47961;DHT22;33721;48.852;9.936;2022-12-07T04:29:41;2.00;99.90
47961;DHT22;33721;48.852;9.936;2022-12-07T04:32:07;2.00;99.90
47961;DHT22;33721;48.852;9.936;2022-12-07T04:34:33;2.00;99.90
47961;DHT22;33721;48.852;9.936;2022-12-07T04:36:58;1.90;99.90
47961;DHT22;33721;48.852;9.936;2022-12-07T04:39:26;1.90;99.90
47961;DHT22;33721;48.852;9.936;2022-12-07T04:41:55;1.80;99.90
47961;DHT22;33721;48.852;9.936;2022-12-07T04:44:22;1.80;99.90
47961;DHT22;33721;48.852;9.936;2022-12-07T04:46:49;1.70;99.90
47961;DHT22;33721;48.852;9.936;2022-12-07T04:49:16;1.60;99.90
47961;DHT22;33721;48.852;9.936;2022-12-07T04:51:42;1.70;99.90
47961;DHT22;33721;48.852;9.936;2022-12-07T04:54:09;1.70;99.90
47961;DHT22;33721;48.852;9.936;2022-12-07T04:56:34;1.70;99.90
47961;DHT22;33721;48.852;9.936;2022-12-07T04:59:01;1.80;99.90
47961;DHT22;33721;48.852;9.936;2022-12-07T05:01:27;1.80;99.90
47961;DHT22;33721;48.852;9.936;2022-12-07T05:03:53;1.80;99.90
47961;DHT22;33721;48.852;9.936;2022-12-07T05:06:19;1.80;99.90
47961;DHT22;33721;48.852;9.936;2022-12-07T05:08:45;1.80;99.90
47961;DHT22;33721;48.852;9.936;2022-12-07T05:11:11;1.80;99.90
47961;DHT22;33721;48.852;9.936;2022-12-07T05:13:57;1.80;99.90
47961;DHT22;33721;48.852;9.936;2022-12-07T05:16:23;1.80;99.90
47961;DHT22;33721;48.852;9.936;2022-12-07T05:18:48;1.80;99.90
47961;DHT22;33721;48.852;9.936;2022-12-07T05:21:14;1.80;99.90
47961;DHT22;33721;48.852;9.936;2022-12-07T05:23:39;1.90;99.90
47961;DHT22;33721;48.852;9.936;2022-12-07T05:26:05;1.90;99.90
47961;DHT22;33721;48.852;9.936;2022-12-07T05:28:31;1.90;99.90
47961;DHT22;33721;48.852;9.936;2022-12-07T05:30:56;1.90;99.90
47961;DHT22;33721;48.852;9.936;2022-12-07T05:33:22;1.90;99.90
47961;DHT22;33721;48.852;9.936;2022-12-07T05:35:47;2.00;99.90
47961;DHT22;33721;48.852;9.936;2022-12-07T05:38:13;2.00;99.90
47961;DHT22;33721;48.852;9.936;2022-12-07T05:40:39;2.00;99.90
47961;DHT22;33721;48.852;9.936;2022-12-07T05:43:04;2.00;99.90
47961;DHT22;33721;48.852;9.936;2022-12-07T05:45:30;2.00;99.90
47961;DHT22;33721;48.852;9.936;2022-12-07T05:47:56;2.00;99.90
47961;DHT22;33721;48.852;9.936;2022-12-07T05:50:21;2.00;99.90
47961;DHT22;33721;48.852;9.936;2022-12-07T05:52:47;2.00;99.90
47961;DHT22;33721;48.852;9.936;2022-12-07T05:55:13;1.90;99.90
47961;DHT22;33721;48.852;9.936;2022-12-07T05:57:38;2.00;99.90
47961;DHT22;33721;48.852;9.936;2022-12-07T06:00:05;2.00;99.90
47961;DHT22;33721;48.852;9.936;2022-12-07T06:02:31;2.00;99.90
47961;DHT22;33721;48.852;9.936;2022-12-07T06:04:56;2.00;99.90
47961;DHT22;33721;48.852;9.936;2022-12-07T06:07:22;2.00;99.90
47961;DHT22;33721;48.852;9.936;2022-12-07T06:09:48;2.10;99.90
47961;DHT22;33721;48.852;9.936;2022-12-07T06:12:14;2.10;99.90
47961;DHT22;33721;48.852;9.936;2022-12-07T06:14:58;2.10;99.90
47961;DHT22;33721;48.852;9.936;2022-12-07T06:17:24;2.10;99.90
47961;DHT22;33721;48.852;9.936;2022-12-07T06:19:50;2.10;99.90
47961;DHT22;33721;48.852;9.936;2022-12-07T06:22:16;2.10;99.90
47961;DHT22;33721;48.852;9.936;2022-12-07T06:24:42;2.20;99.90
47961;DHT22;33721;48.852;9.936;2022-12-07T06:27:08;2.20;99.90
47961;DHT22;33721;48.852;9.936;2022-12-07T06:29:34;2.20;99.90
47961;DHT22;33721;48.852;9.936;2022-12-07T06:32:00;2.10;99.90
47961;DHT22;33721;48.852;9.936;2022-12-07T06:34:26;2.10;99.90
47961;DHT22;33721;48.852;9.936;2022-12-07T06:36:53;2.20;99.90
47961;DHT22;33721;48.852;9.936;2022-12-07T06:39:25;2.10;99.90
47961;DHT22;33721;48.852;9.936;2022-12-07T06:41:52;2.10;99.90
47961;DHT22;33721;48.852;9.936;2022-12-07T06:44:19;2.00;99.90
47961;DHT22;33721;48.852;9.936;2022-12-07T06:46:45;2.10;99.90
47961;DHT22;33721;48.852;9.936;2022-12-07T06:49:11;2.10;99.90
47961;DHT22;33721;48.852;9.936;2022-12-07T06:51:37;2.10;99.90
47961;DHT22;33721;48.852;9.936;2022-12-07T06:54:07;2.00;99.90
47961;DHT22;33721;48.852;9.936;2022-12-07T06:56:33;2.00;99.90
47961;DHT22;33721;48.852;9.936;2022-12-07T06:58:59;2.00;99.90
47961;DHT22;33721;48.852;9.936;2022-12-07T07:01:25;2.00;99.90
47961;DHT22;33721;48.852;9.936;2022-12-07T07:03:50;2.00;99.90
47961;DHT22;33721;48.852;9.936;2022-12-07T07:06:16;2.00;99.90
47961;DHT22;33721;48.852;9.936;2022-12-07T07:08:42;2.00;99.90
47961;DHT22;33721;48.852;9.936;2022-12-07T07:11:08;1.90;99.90
47961;DHT22;33721;48.852;9.936;2022-12-07T07:13:34;1.90;99.90
47961;DHT22;33721;48.852;9.936;2022-12-07T07:16:00;1.90;99.90
47961;DHT22;33721;48.852;9.936;2022-12-07T07:18:26;1.90;99.90
47961;DHT22;33721;48.852;9.936;2022-12-07T07:20:53;1.90;99.90
47961;DHT22;33721;48.852;9.936;2022-12-07T07:23:19;1.90;99.90
47961;DHT22;33721;48.852;9.936;2022-12-07T07:25:46;1.90;99.90
47961;DHT22;33721;48.852;9.936;2022-12-07T07:28:11;1.90;99.90
47961;DHT22;33721;48.852;9.936;2022-12-07T07:30:37;1.90;99.90
47961;DHT22;33721;48.852;9.936;2022-12-07T07:33:04;1.90;99.90
47961;DHT22;33721;48.852;9.936;2022-12-07T07:35:32;1.90;99.90
47961;DHT22;33721;48.852;9.936;2022-12-07T07:37:58;2.00;99.90
47961;DHT22;33721;48.852;9.936;2022-12-07T07:40:25;2.00;99.90
47961;DHT22;33721;48.852;9.936;2022-12-07T07:42:52;2.00;99.90
47961;DHT22;33721;48.852;9.936;2022-12-07T07:45:19;2.00;99.90
47961;DHT22;33721;48.852;9.936;2022-12-07T07:47:45;2.00;99.90
47961;DHT22;33721;48.852;9.936;2022-12-07T07:50:11;2.00;99.90
47961;DHT22;33721;48.852;9.936;2022-12-07T07:52:36;2.00;99.90
47961;DHT22;33721;48.852;9.936;2022-12-07T07:55:02;2.00;99.90
47961;DHT22;33721;48.852;9.936;2022-12-07T07:57:28;2.10;99.90
47961;DHT22;33721;48.852;9.936;2022-12-07T07:59:54;2.00;99.90
47961;DHT22;33721;48.852;9.936;2022-12-07T08:02:20;2.10;99.90
47961;DHT22;33721;48.852;9.936;2022-12-07T08:04:47;2.10;99.90
47961;DHT22;33721;48.852;9.936;2022-12-07T08:07:14;2.10;99.90
47961;DHT22;33721;48.852;9.936;2022-12-07T08:09:40;2.10;99.90
47961;DHT22;33721;48.852;9.936;2022-12-07T08:12:05;2.10;99.90
47961;DHT22;33721;48.852;9.936;2022-12-07T08:14:31;2.10;99.90
47961;DHT22;33721;48.852;9.936;2022-12-07T08:16:57;2.10;99.90
47961;DHT22;33721;48.852;9.936;2022-12-07T08:19:23;2.10;99.90
47961;DHT22;33721;48.852;9.936;2022-12-07T08:21:49;2.10;99.90
47961;DHT22;33721;48.852;9.936;2022-12-07T08:24:15;2.20;99.90
47961;DHT22;33721;48.852;9.936;2022-12-07T08:26:42;2.20;99.90
47961;DHT22;33721;48.852;9.936;2022-12-07T08:29:07;2.20;99.90
47961;DHT22;33721;48.852;9.936;2022-12-07T08:31:33;2.20;99.90
47961;DHT22;33721;48.852;9.936;2022-12-07T08:33:59;2.20;99.90
47961;DHT22;33721;48.852;9.936;2022-12-07T08:36:25;2.20;99.90
47961;DHT22;33721;48.852;9.936;2022-12-07T08:38:50;2.20;99.90
47961;DHT22;33721;48.852;9.936;2022-12-07T08:41:19;2.20;99.90
47961;DHT22;33721;48.852;9.936;2022-12-07T08:43:45;2.20;99.90
47961;DHT22;33721;48.852;9.936;2022-12-07T08:46:30;2.20;99.90
47961;DHT22;33721;48.852;9.936;2022-12-07T08:49:45;2.30;99.90
47961;DHT22;33721;48.852;9.936;2022-12-07T08:51:51;2.30;99.90
47961;DHT22;33721;48.852;9.936;2022-12-07T08:54:18;2.40;99.90
47961;DHT22;33721;48.852;9.936;2022-12-07T08:56:46;2.40;99.90
47961;DHT22;33721;48.852;9.936;2022-12-07T08:59:14;2.40;99.90
47961;DHT22;33721;48.852;9.936;2022-12-07T09:01:41;2.40;99.90
47961;DHT22;33721;48.852;9.936;2022-12-07T09:04:06;2.40;99.90
47961;DHT22;33721;48.852;9.936;2022-12-07T09:06:33;2.50;99.90
47961;DHT22;33721;48.852;9.936;2022-12-07T09:09:00;2.50;99.90
47961;DHT22;33721;48.852;9.936;2022-12-07T09:11:26;2.60;99.90
47961;DHT22;33721;48.852;9.936;2022-12-07T09:13:52;2.60;99.90
47961;DHT22;33721;48.852;9.936;2022-12-07T09:16:18;2.60;99.90
47961;DHT22;33721;48.852;9.936;2022-12-07T09:18:43;2.60;99.90
47961;DHT22;33721;48.852;9.936;2022-12-07T09:21:10;2.70;99.90
47961;DHT22;33721;48.852;9.936;2022-12-07T09:23:35;2.70;99.90
47961;DHT22;33721;48.852;9.936;2022-12-07T09:26:02;2.70;99.90
47961;DHT22;33721;48.852;9.936;2022-12-07T09:28:28;2.70;99.90
47961;DHT22;33721;48.852;9.936;2022-12-07T09:30:53;2.80;99.90
47961;DHT22;33721;48.852;9.936;2022-12-07T09:33:19;2.70;99.90
47961;DHT22;33721;48.852;9.936;2022-12-07T09:35:47;2.80;99.90
47961;DHT22;33721;48.852;9.936;2022-12-07T09:38:14;2.80;99.90
47961;DHT22;33721;48.852;9.936;2022-12-07T09:40:40;2.80;99.90
47961;DHT22;33721;48.852;9.936;2022-12-07T09:43:13;2.90;99.90
47961;DHT22;33721;48.852;9.936;2022-12-07T09:45:40;2.90;99.90
47961;DHT22;33721;48.852;9.936;2022-12-07T09:48:18;2.90;99.90
47961;DHT22;33721;48.852;9.936;2022-12-07T09:50:46;3.00;99.90
47961;DHT22;33721;48.852;9.936;2022-12-07T09:53:35;2.90;99.90
47961;DHT22;33721;48.852;9.936;2022-12-07T09:56:02;2.90;99.90
47961;DHT22;33721;48.852;9.936;2022-12-07T09:58:29;2.90;99.90
47961;DHT22;33721;48.852;9.936;2022-12-07T10:01:19;2.90;99.90
47961;DHT22;33721;48.852;9.936;2022-12-07T10:04:09;2.90;99.90
47961;DHT22;33721;48.852;9.936;2022-12-07T10:06:35;3.00;99.90
47961;DHT22;33721;48.852;9.936;2022-12-07T10:09:09;3.00;99.90
47961;DHT22;33721;48.852;9.936;2022-12-07T10:11:35;3.10;99.90
47961;DHT22;33721;48.852;9.936;2022-12-07T10:14:12;3.00;99.90
47961;DHT22;33721;48.852;9.936;2022-12-07T10:16:41;3.00;99.90
47961;DHT22;33721;48.852;9.936;2022-12-07T10:19:30;3.00;99.90
47961;DHT22;33721;48.852;9.936;2022-12-07T10:22:01;3.10;99.90
47961;DHT22;33721;48.852;9.936;2022-12-07T10:24:27;3.10;99.90
47961;DHT22;33721;48.852;9.936;2022-12-07T10:26:53;3.00;99.90
47961;DHT22;33721;48.852;9.936;2022-12-07T10:29:32;3.10;99.90
47961;DHT22;33721;48.852;9.936;2022-12-07T10:34:34;3.10;99.90
47961;DHT22;33721;48.852;9.936;2022-12-07T10:40:01;3.10;99.90
47961;DHT22;33721;48.852;9.936;2022-12-07T10:42:29;3.10;99.90
47961;DHT22;33721;48.852;9.936;2022-12-07T10:45:15;3.10;99.90
47961;DHT22;33721;48.852;9.936;2022-12-07T10:59:09;3.10;99.90
47961;DHT22;33721;48.852;9.936;2022-12-07T11:07:33;3.20;99.90
47961;DHT22;33721;48.852;9.936;2022-12-07T11:10:17;3.30;99.90
47961;DHT22;33721;48.852;9.936;2022-12-07T11:13:12;3.30;99.90
47961;DHT22;33721;48.852;9.936;2022-12-07T11:15:59;3.40;99.90
47961;DHT22;33721;48.852;9.936;2022-12-07T11:35:05;3.40;99.90
47961;DHT22;33721;48.852;9.936;2022-12-07T11:37:35;3.40;99.90
47961;DHT22;33721;48.852;9.936;2022-12-07T11:42:55;3.50;99.90
47961;DHT22;33721;48.852;9.936;2022-12-07T11:45:27;3.50;99.90
47961;DHT22;33721;48.852;9.936;2022-12-07T11:48:17;3.50;99.90
47961;DHT22;33721;48.852;9.936;2022-12-07T11:50:50;3.50;99.90
47961;DHT22;33721;48.852;9.936;2022-12-07T11:53:20;3.40;99.90
47961;DHT22;33721;48.852;9.936;2022-12-07T11:56:19;3.50;99.90
47961;DHT22;33721;48.852;9.936;2022-12-07T12:09:17;3.50;99.90
47961;DHT22;33721;48.852;9.936;2022-12-07T12:22:36;3.50;99.90
47961;DHT22;33721;48.852;9.936;2022-12-07T12:25:05;3.50;99.90
47961;DHT22;33721;48.852;9.936;2022-12-07T12:27:35;3.50;99.90
47961;DHT22;33721;48.852;9.936;2022-12-07T12:30:04;3.60;99.90
47961;DHT22;33721;48.852;9.936;2022-12-07T12:32:40;3.70;99.90
47961;DHT22;33721;48.852;9.936;2022-12-07T12:37:53;3.60;99.90
47961;DHT22;33721;48.852;9.936;2022-12-07T12:42:56;3.70;99.90
47961;DHT22;33721;48.852;9.936;2022-12-07T12:45:30;3.70;99.90
47961;DHT22;33721;48.852;9.936;2022-12-07T12:48:35;3.70;99.90
47961;DHT22;33721;48.852;9.936;2022-12-07T12:54:12;3.70;99.90
47961;DHT22;33721;48.852;9.936;2022-12-07T12:56:59;3.60;99.90
47961;DHT22;33721;48.852;9.936;2022-12-07T12:59:31;3.60;99.90
47961;DHT22;33721;48.852;9.936;2022-12-07T13:02:16;3.60;99.90
47961;DHT22;33721;48.852;9.936;2022-12-07T13:04:55;3.60;99.90
47961;DHT22;33721;48.852;9.936;2022-12-07T13:10:25;3.50;99.90
47961;DHT22;33721;48.852;9.936;2022-12-07T13:13:03;3.60;99.90
47961;DHT22;33721;48.852;9.936;2022-12-07T13:18:38;3.60;99.90
47961;DHT22;33721;48.852;9.936;2022-12-07T13:26:26;3.60;99.90
47961;DHT22;33721;48.852;9.936;2022-12-07T13:34:02;3.70;99.90
47961;DHT22;33721;48.852;9.936;2022-12-07T13:41:41;3.60;99.90
47961;DHT22;33721;48.852;9.936;2022-12-07T13:44:11;3.70;99.90
47961;DHT22;33721;48.852;9.936;2022-12-07T13:46:51;3.70;99.90
47961;DHT22;33721;48.852;9.936;2022-12-07T13:49:23;3.60;99.90
47961;DHT22;33721;48.852;9.936;2022-12-07T13:51:50;3.60;99.90
47961;DHT22;33721;48.852;9.936;2022-12-07T13:54:17;3.60;99.90
47961;DHT22;33721;48.852;9.936;2022-12-07T13:56:43;3.60;99.90
47961;DHT22;33721;48.852;9.936;2022-12-07T13:59:21;3.60;99.90
47961;DHT22;33721;48.852;9.936;2022-12-07T14:01:49;3.60;99.90
47961;DHT22;33721;48.852;9.936;2022-12-07T14:04:36;3.60;99.90
47961;DHT22;33721;48.852;9.936;2022-12-07T14:07:27;3.60;99.90
47961;DHT22;33721;48.852;9.936;2022-12-07T14:12:24;3.50;99.90
47961;DHT22;33721;48.852;9.936;2022-12-07T14:14:50;3.50;99.90
47961;DHT22;33721;48.852;9.936;2022-12-07T14:17:21;3.50;99.90
47961;DHT22;33721;48.852;9.936;2022-12-07T14:22:35;3.50;99.90
47961;DHT22;33721;48.852;9.936;2022-12-07T14:25:21;3.50;99.90
47961;DHT22;33721;48.852;9.936;2022-12-07T14:27:58;3.40;99.90
47961;DHT22;33721;48.852;9.936;2022-12-07T14:30:30;3.50;99.90
47961;DHT22;33721;48.852;9.936;2022-12-07T14:33:01;3.50;99.90
47961;DHT22;33721;48.852;9.936;2022-12-07T14:35:28;3.50;99.90
47961;DHT22;33721;48.852;9.936;2022-12-07T14:37:54;3.50;99.90
47961;DHT22;33721;48.852;9.936;2022-12-07T14:40:25;3.50;99.90
47961;DHT22;33721;48.852;9.936;2022-12-07T14:43:12;3.50;99.90
47961;DHT22;33721;48.852;9.936;2022-12-07T14:45:40;3.50;99.90
47961;DHT22;33721;48.852;9.936;2022-12-07T14:48:07;3.50;99.90
47961;DHT22;33721;48.852;9.936;2022-12-07T14:50:37;3.40;99.90
47961;DHT22;33721;48.852;9.936;2022-12-07T14:53:12;3.50;99.90
47961;DHT22;33721;48.852;9.936;2022-12-07T14:55:38;3.50;99.90
47961;DHT22;33721;48.852;9.936;2022-12-07T14:58:04;3.40;99.90
47961;DHT22;33721;48.852;9.936;2022-12-07T15:00:29;3.50;99.90
47961;DHT22;33721;48.852;9.936;2022-12-07T15:02:55;3.50;99.90
47961;DHT22;33721;48.852;9.936;2022-12-07T15:05:22;3.50;99.90
47961;DHT22;33721;48.852;9.936;2022-12-07T15:07:48;3.50;99.90
47961;DHT22;33721;48.852;9.936;2022-12-07T15:10:28;3.50;99.90
47961;DHT22;33721;48.852;9.936;2022-12-07T15:12:59;3.50;99.90
47961;DHT22;33721;48.852;9.936;2022-12-07T15:15:45;3.40;99.90
47961;DHT22;33721;48.852;9.936;2022-12-07T15:18:11;3.40;99.90
47961;DHT22;33721;48.852;9.936;2022-12-07T15:20:37;3.30;99.90
47961;DHT22;33721;48.852;9.936;2022-12-07T15:23:02;3.30;99.90
47961;DHT22;33721;48.852;9.936;2022-12-07T15:25:28;3.20;99.90
47961;DHT22;33721;48.852;9.936;2022-12-07T15:27:53;3.20;99.90
47961;DHT22;33721;48.852;9.936;2022-12-07T15:30:19;3.10;99.90
47961;DHT22;33721;48.852;9.936;2022-12-07T15:32:52;3.00;99.90
47961;DHT22;33721;48.852;9.936;2022-12-07T15:35:18;3.00;99.90
47961;DHT22;33721;48.852;9.936;2022-12-07T15:37:43;3.00;99.90
47961;DHT22;33721;48.852;9.936;2022-12-07T15:40:10;3.00;99.90
47961;DHT22;33721;48.852;9.936;2022-12-07T15:42:36;3.00;99.90
47961;DHT22;33721;48.852;9.936;2022-12-07T15:45:02;3.00;99.90
47961;DHT22;33721;48.852;9.936;2022-12-07T15:47:35;3.00;99.90
47961;DHT22;33721;48.852;9.936;2022-12-07T15:50:05;3.00;99.90
47961;DHT22;33721;48.852;9.936;2022-12-07T15:52:31;3.00;99.90
47961;DHT22;33721;48.852;9.936;2022-12-07T15:54:57;3.00;99.90
47961;DHT22;33721;48.852;9.936;2022-12-07T15:57:22;3.00;99.90
47961;DHT22;33721;48.852;9.936;2022-12-07T15:59:48;3.00;99.90
47961;DHT22;33721;48.852;9.936;2022-12-07T16:02:14;3.10;99.90
47961;DHT22;33721;48.852;9.936;2022-12-07T16:04:39;3.00;99.90
47961;DHT22;33721;48.852;9.936;2022-12-07T16:07:05;3.10;99.90
47961;DHT22;33721;48.852;9.936;2022-12-07T16:09:31;3.00;99.90
47961;DHT22;33721;48.852;9.936;2022-12-07T16:11:57;3.00;99.90
47961;DHT22;33721;48.852;9.936;2022-12-07T16:14:22;2.90;99.90
47961;DHT22;33721;48.852;9.936;2022-12-07T16:16:48;2.80;99.90
47961;DHT22;33721;48.852;9.936;2022-12-07T16:19:14;2.80;99.90
47961;DHT22;33721;48.852;9.936;2022-12-07T16:21:40;2.80;99.90
47961;DHT22;33721;48.852;9.936;2022-12-07T16:24:06;2.80;99.90
47961;DHT22;33721;48.852;9.936;2022-12-07T16:26:32;2.80;99.90
47961;DHT22;33721;48.852;9.936;2022-12-07T16:28:58;2.70;99.90
47961;DHT22;33721;48.852;9.936;2022-12-07T16:31:25;2.70;99.90
47961;DHT22;33721;48.852;9.936;2022-12-07T16:33:56;2.60;99.90
47961;DHT22;33721;48.852;9.936;2022-12-07T16:36:22;2.60;99.90
47961;DHT22;33721;48.852;9.936;2022-12-07T16:38:50;2.50;99.90
47961;DHT22;33721;48.852;9.936;2022-12-07T16:41:16;2.50;99.90
47961;DHT22;33721;48.852;9.936;2022-12-07T16:43:42;2.40;99.90
47961;DHT22;33721;48.852;9.936;2022-12-07T16:46:07;2.50;99.90
47961;DHT22;33721;48.852;9.936;2022-12-07T16:48:40;2.50;99.90
47961;DHT22;33721;48.852;9.936;2022-12-07T16:51:08;2.50;99.90
47961;DHT22;33721;48.852;9.936;2022-12-07T16:53:40;2.50;99.90
47961;DHT22;33721;48.852;9.936;2022-12-07T16:56:16;2.50;99.90
47961;DHT22;33721;48.852;9.936;2022-12-07T16:58:45;2.50;99.90
47961;DHT22;33721;48.852;9.936;2022-12-07T17:01:15;2.60;99.90
47961;DHT22;33721;48.852;9.936;2022-12-07T17:03:42;2.50;99.90
47961;DHT22;33721;48.852;9.936;2022-12-07T17:06:16;2.50;99.90
47961;DHT22;33721;48.852;9.936;2022-12-07T17:08:42;2.50;99.90
47961;DHT22;33721;48.852;9.936;2022-12-07T17:11:13;2.50;99.90
47961;DHT22;33721;48.852;9.936;2022-12-07T17:13:40;2.50;99.90
47961;DHT22;33721;48.852;9.936;2022-12-07T17:16:24;2.50;99.90
47961;DHT22;33721;48.852;9.936;2022-12-07T17:18:50;2.40;99.90
47961;DHT22;33721;48.852;9.936;2022-12-07T17:21:16;2.40;99.90
47961;DHT22;33721;48.852;9.936;2022-12-07T17:23:41;2.40;99.90
47961;DHT22;33721;48.852;9.936;2022-12-07T17:26:17;2.40;99.90
47961;DHT22;33721;48.852;9.936;2022-12-07T17:28:43;2.40;99.90
47961;DHT22;33721;48.852;9.936;2022-12-07T17:31:11;2.40;99.90
47961;DHT22;33721;48.852;9.936;2022-12-07T17:33:37;2.40;99.90
47961;DHT22;33721;48.852;9.936;2022-12-07T17:36:16;2.40;99.90
47961;DHT22;33721;48.852;9.936;2022-12-07T17:38:42;2.40;99.90
47961;DHT22;33721;48.852;9.936;2022-12-07T17:41:12;2.40;99.90
47961;DHT22;33721;48.852;9.936;2022-12-07T17:43:58;2.50;99.90
47961;DHT22;33721;48.852;9.936;2022-12-07T17:46:24;2.50;99.90
47961;DHT22;33721;48.852;9.936;2022-12-07T17:48:50;2.50;99.90
47961;DHT22;33721;48.852;9.936;2022-12-07T17:51:18;2.50;99.90
47961;DHT22;33721;48.852;9.936;2022-12-07T17:54:02;2.50;99.90
47961;DHT22;33721;48.852;9.936;2022-12-07T17:56:28;2.50;99.90